createdAt,value
2018-08-04T00:09:07.018Z,11.57
2018-08-04T00:24:11.321Z,11.80
2018-08-04T00:39:15.689Z,10.37
2018-08-04T00:54:19.741Z,12.90
2018-08-04T01:09:23.971Z,13.17
2018-08-04T01:24:28.171Z,14.50
2018-08-04T01:39:32.287Z,15.47
2018-08-04T01:54:36.362Z,16.90
2018-08-04T02:09:40.484Z,19.10
2018-08-04T02:24:44.825Z,17.83
2018-08-04T02:39:49.085Z,18.13
2018-08-04T02:54:53.285Z,17.93
2018-08-04T03:09:57.483Z,21.53
2018-08-04T03:25:01.761Z,22.17
2018-08-04T03:40:06.176Z,23.23
2018-08-04T03:55:10.289Z,20.87
2018-08-04T04:10:14.488Z,17.73
2018-08-04T04:25:18.586Z,15.03
2018-08-04T04:40:23.055Z,13.53
2018-08-04T04:55:27.521Z,11.20
2018-08-04T05:10:31.657Z,11.30
2018-08-04T05:25:37.371Z,12.07
2018-08-04T05:40:41.491Z,11.87
2018-08-04T05:55:45.574Z,11.63
2018-08-04T06:10:49.713Z,13.57
2018-08-04T06:25:54.018Z,10.80
2018-08-04T06:40:58.201Z,8.77
2018-08-04T06:56:02.575Z,8.10
2018-08-04T07:11:06.709Z,5.73
2018-08-04T07:26:11.049Z,5.20
2018-08-04T07:41:15.314Z,5.23
2018-08-04T07:56:19.293Z,4.00
2018-08-04T08:11:23.880Z,3.77
2018-08-04T08:26:27.693Z,4.03
2018-08-04T08:41:31.955Z,4.23
2018-08-04T08:56:36.260Z,4.47
2018-08-04T09:11:40.476Z,4.60
2018-08-04T09:26:44.804Z,4.70
2018-08-04T09:41:48.684Z,4.10
2018-08-04T09:56:53.091Z,3.73
2018-08-04T10:11:57.825Z,3.83
2018-08-04T10:27:01.875Z,3.63
2018-08-04T10:42:06.988Z,3.17
2018-08-04T10:57:11.327Z,3.77
2018-08-04T11:12:15.309Z,4.20
2018-08-04T11:27:19.360Z,4.03
2018-08-04T11:42:23.607Z,3.70
2018-08-04T11:57:27.975Z,4.40
2018-08-04T12:12:32.061Z,3.73
2018-08-04T12:27:36.282Z,3.90
2018-08-04T12:42:40.674Z,4.37
2018-08-04T12:57:45.016Z,4.20
2018-08-04T13:12:49.321Z,4.50
2018-08-04T13:27:54.019Z,4.10
2018-08-04T13:42:58.412Z,4.00
2018-08-04T13:58:02.591Z,4.40
2018-08-04T14:13:06.947Z,4.27
2018-08-04T14:28:11.338Z,3.83
2018-08-04T14:43:15.802Z,4.50
2018-08-04T14:58:19.797Z,4.83
2018-08-04T15:13:24.221Z,5.30
2018-08-04T15:28:28.522Z,4.00
2018-08-04T15:43:33.145Z,4.30
2018-08-04T15:58:37.307Z,4.80
2018-08-04T16:13:41.708Z,4.20
2018-08-04T16:28:46.033Z,4.00
2018-08-04T16:43:49.972Z,4.47
2018-08-04T16:58:53.918Z,7.73
2018-08-04T17:14:29.062Z,4.83
2018-08-04T17:30:02.297Z,4.87
2018-08-04T17:45:36.276Z,4.63
2018-08-04T18:01:10.350Z,5.00
2018-08-04T18:16:45.571Z,5.07
2018-08-04T18:32:19.240Z,5.10
2018-08-04T18:47:53.044Z,5.23
2018-08-04T19:03:27.293Z,4.43
2018-08-04T19:19:02.866Z,5.10
2018-08-04T19:34:36.930Z,4.93
2018-08-04T19:50:11.997Z,4.53
2018-08-04T20:05:45.726Z,4.83
2018-08-04T20:21:20.526Z,4.43
2018-08-04T20:36:55.040Z,4.67
2018-08-04T20:52:29.586Z,5.30
2018-08-04T21:08:03.309Z,4.87
2018-08-04T21:23:37.464Z,4.67
2018-08-04T21:39:13.223Z,4.53
2018-08-04T21:54:48.221Z,4.63
2018-08-04T22:10:22.953Z,4.37
2018-08-04T22:25:57.354Z,4.93
2018-08-04T22:41:30.189Z,5.57
2018-08-04T22:57:04.623Z,5.27
2018-08-04T23:12:40.514Z,5.60
2018-08-04T23:28:14.755Z,6.47
2018-08-04T23:43:50.208Z,6.03
2018-08-04T23:59:25.113Z,7.50
